sensor_id;sensor_type;location;lat;lon;timestamp;P1;P2;P0
65556;PMS3003;52200;53.490;14.376;2023-06-19T00:00:42;27.50;22.00;13.00
65556;PMS3003;52200;53.490;14.376;2023-06-19T00:03:07;24.25;18.75;12.00
65556;PMS3003;52200;53.490;14.376;2023-06-19T00:05:33;22.00;18.00;11.50
65556;PMS3003;52200;53.490;14.376;2023-06-19T00:07:58;23.50;20.50;12.50
65556;PMS3003;52200;53.490;14.376;2023-06-19T00:10:24;27.25;21.75;13.00
65556;PMS3003;52200;53.490;14.376;2023-06-19T00:12:49;23.00;19.75;13.00
65556;PMS3003;52200;53.490;14.376;2023-06-19T00:15:15;24.75;21.75;14.50
65556;PMS3003;52200;53.490;14.376;2023-06-19T00:17:40;22.75;19.00;12.25
65556;PMS3003;52200;53.490;14.376;2023-06-19T00:20:06;24.00;20.80;13.00
65556;PMS3003;52200;53.490;14.376;2023-06-19T00:22:32;22.80;17.80;12.00
65556;PMS3003;52200;53.490;14.376;2023-06-19T00:24:58;24.50;20.00;12.25
65556;PMS3003;52200;53.490;14.376;2023-06-19T00:27:24;23.60;19.80;12.60
65556;PMS3003;52200;53.490;14.376;2023-06-19T00:29:53;21.75;19.00;12.50
65556;PMS3003;52200;53.490;14.376;2023-06-19T00:32:18;24.00;19.60;12.40
65556;PMS3003;52200;53.490;14.376;2023-06-19T00:34:43;24.25;19.50;12.00
65556;PMS3003;52200;53.490;14.376;2023-06-19T00:37:09;28.00;21.50;12.00
65556;PMS3003;52200;53.490;14.376;2023-06-19T00:39:35;24.25;20.50;14.00
65556;PMS3003;52200;53.490;14.376;2023-06-19T00:42:00;27.50;21.25;14.00
65556;PMS3003;52200;53.490;14.376;2023-06-19T00:44:26;21.75;18.50;11.50
65556;PMS3003;52200;53.490;14.376;2023-06-19T00:46:55;24.25;17.25;13.00
65556;PMS3003;52200;53.490;14.376;2023-06-19T00:49:22;26.60;20.60;13.00
65556;PMS3003;52200;53.490;14.376;2023-06-19T00:51:50;27.40;20.60;13.00
65556;PMS3003;52200;53.490;14.376;2023-06-19T00:54:17;24.00;18.40;12.00
65556;PMS3003;52200;53.490;14.376;2023-06-19T00:56:43;23.20;19.40;13.40
65556;PMS3003;52200;53.490;14.376;2023-06-19T00:59:16;25.20;22.00;14.00
65556;PMS3003;52200;53.490;14.376;2023-06-19T01:01:45;24.60;18.60;13.00
65556;PMS3003;52200;53.490;14.376;2023-06-19T01:04:11;25.20;19.40;12.80
65556;PMS3003;52200;53.490;14.376;2023-06-19T01:09:26;24.40;20.20;13.80
65556;PMS3003;52200;53.490;14.376;2023-06-19T01:11:57;27.20;23.00;14.40
65556;PMS3003;52200;53.490;14.376;2023-06-19T01:14:30;23.80;20.00;13.00
65556;PMS3003;52200;53.490;14.376;2023-06-19T01:17:14;22.40;18.20;13.40
65556;PMS3003;52200;53.490;14.376;2023-06-19T01:19:40;23.60;19.00;13.20
65556;PMS3003;52200;53.490;14.376;2023-06-19T01:22:06;26.00;22.25;12.50
65556;PMS3003;52200;53.490;14.376;2023-06-19T01:24:31;24.50;19.50;13.75
65556;PMS3003;52200;53.490;14.376;2023-06-19T01:26:57;27.75;20.50;12.75
65556;PMS3003;52200;53.490;14.376;2023-06-19T01:29:22;24.75;21.00;12.75
65556;PMS3003;52200;53.490;14.376;2023-06-19T01:34:51;26.40;20.80;14.00
65556;PMS3003;52200;53.490;14.376;2023-06-19T01:37:19;25.00;21.20;13.60
65556;PMS3003;52200;53.490;14.376;2023-06-19T01:39:45;30.60;25.60;16.80
65556;PMS3003;52200;53.490;14.376;2023-06-19T01:42:13;32.20;27.60;17.00
65556;PMS3003;52200;53.490;14.376;2023-06-19T01:44:40;25.80;22.80;15.20
65556;PMS3003;52200;53.490;14.376;2023-06-19T01:47:12;24.80;20.60;15.80
65556;PMS3003;52200;53.490;14.376;2023-06-19T01:49:38;25.80;20.80;14.20
65556;PMS3003;52200;53.490;14.376;2023-06-19T01:52:04;28.00;23.75;15.25
65556;PMS3003;52200;53.490;14.376;2023-06-19T01:54:30;27.00;21.00;14.60
65556;PMS3003;52200;53.490;14.376;2023-06-19T01:56:56;25.25;21.00;14.50
65556;PMS3003;52200;53.490;14.376;2023-06-19T01:59:22;26.20;21.60;15.00
65556;PMS3003;52200;53.490;14.376;2023-06-19T02:01:48;25.50;21.75;15.00
65556;PMS3003;52200;53.490;14.376;2023-06-19T02:04:13;28.00;23.75;14.75
65556;PMS3003;52200;53.490;14.376;2023-06-19T02:06:39;29.25;25.50;16.50
65556;PMS3003;52200;53.490;14.376;2023-06-19T02:09:04;31.50;25.00;16.25
65556;PMS3003;52200;53.490;14.376;2023-06-19T02:11:30;24.75;21.25;12.75
65556;PMS3003;52200;53.490;14.376;2023-06-19T02:13:55;27.75;24.25;14.75
65556;PMS3003;52200;53.490;14.376;2023-06-19T02:16:20;27.00;24.00;15.50
65556;PMS3003;52200;53.490;14.376;2023-06-19T02:18:46;27.75;23.75;16.25
65556;PMS3003;52200;53.490;14.376;2023-06-19T02:21:11;22.75;19.25;13.75
65556;PMS3003;52200;53.490;14.376;2023-06-19T02:23:37;26.75;21.50;14.75
65556;PMS3003;52200;53.490;14.376;2023-06-19T02:26:02;27.00;22.00;14.00
65556;PMS3003;52200;53.490;14.376;2023-06-19T02:28:28;27.50;23.50;14.75
65556;PMS3003;52200;53.490;14.376;2023-06-19T02:30:53;28.00;23.50;14.25
65556;PMS3003;52200;53.490;14.376;2023-06-19T02:33:19;27.75;22.50;14.75
65556;PMS3003;52200;53.490;14.376;2023-06-19T02:35:44;26.50;22.25;14.75
65556;PMS3003;52200;53.490;14.376;2023-06-19T02:38:10;26.00;23.00;15.50
65556;PMS3003;52200;53.490;14.376;2023-06-19T02:40:38;28.00;23.40;15.20
65556;PMS3003;52200;53.490;14.376;2023-06-19T02:43:04;28.00;21.00;14.20
65556;PMS3003;52200;53.490;14.376;2023-06-19T02:45:29;25.00;20.50;13.50
65556;PMS3003;52200;53.490;14.376;2023-06-19T02:47:55;24.50;20.25;13.00
65556;PMS3003;52200;53.490;14.376;2023-06-19T02:50:20;23.50;20.00;13.00
65556;PMS3003;52200;53.490;14.376;2023-06-19T02:52:46;24.75;19.25;13.00
65556;PMS3003;52200;53.490;14.376;2023-06-19T02:55:11;25.00;20.25;12.75
65556;PMS3003;52200;53.490;14.376;2023-06-19T02:57:36;22.00;18.00;12.75
65556;PMS3003;52200;53.490;14.376;2023-06-19T03:00:02;23.75;19.25;13.00
65556;PMS3003;52200;53.490;14.376;2023-06-19T03:02:31;25.20;21.60;13.60
65556;PMS3003;52200;53.490;14.376;2023-06-19T03:04:56;21.50;17.25;11.75
65556;PMS3003;52200;53.490;14.376;2023-06-19T03:07:22;24.00;19.50;13.00
65556;PMS3003;52200;53.490;14.376;2023-06-19T03:09:47;25.75;22.25;13.00
65556;PMS3003;52200;53.490;14.376;2023-06-19T03:12:12;23.50;19.00;13.75
65556;PMS3003;52200;53.490;14.376;2023-06-19T03:14:38;25.50;20.00;14.00
65556;PMS3003;52200;53.490;14.376;2023-06-19T03:17:05;23.60;19.60;13.80
65556;PMS3003;52200;53.490;14.376;2023-06-19T03:19:30;21.20;17.40;12.20
65556;PMS3003;52200;53.490;14.376;2023-06-19T03:21:56;22.50;17.25;12.75
65556;PMS3003;52200;53.490;14.376;2023-06-19T03:24:21;26.25;20.50;13.75
65556;PMS3003;52200;53.490;14.376;2023-06-19T03:26:47;25.25;19.00;12.25
65556;PMS3003;52200;53.490;14.376;2023-06-19T03:29:12;26.50;19.50;12.75
65556;PMS3003;52200;53.490;14.376;2023-06-19T03:31:38;20.25;17.25;12.25
65556;PMS3003;52200;53.490;14.376;2023-06-19T03:34:04;25.00;19.80;12.80
65556;PMS3003;52200;53.490;14.376;2023-06-19T03:36:30;22.25;17.50;13.00
65556;PMS3003;52200;53.490;14.376;2023-06-19T03:38:55;24.00;20.00;12.00
65556;PMS3003;52200;53.490;14.376;2023-06-19T03:41:21;27.00;21.50;14.00
65556;PMS3003;52200;53.490;14.376;2023-06-19T03:43:46;24.75;18.25;13.00
65556;PMS3003;52200;53.490;14.376;2023-06-19T03:46:12;22.75;18.75;13.00
65556;PMS3003;52200;53.490;14.376;2023-06-19T03:48:37;19.00;16.25;11.00
65556;PMS3003;52200;53.490;14.376;2023-06-19T03:51:02;25.50;20.25;12.00
65556;PMS3003;52200;53.490;14.376;2023-06-19T03:53:28;22.25;18.00;10.75
65556;PMS3003;52200;53.490;14.376;2023-06-19T03:55:54;21.00;18.00;10.25
65556;PMS3003;52200;53.490;14.376;2023-06-19T03:58:20;22.80;18.80;11.40
65556;PMS3003;52200;53.490;14.376;2023-06-19T04:00:45;22.00;17.75;11.00
65556;PMS3003;52200;53.490;14.376;2023-06-19T04:03:10;21.75;17.50;13.25
65556;PMS3003;52200;53.490;14.376;2023-06-19T04:05:36;20.00;16.50;11.50
65556;PMS3003;52200;53.490;14.376;2023-06-19T04:08:01;24.00;20.50;12.75
65556;PMS3003;52200;53.490;14.376;2023-06-19T04:10:27;23.75;19.50;11.25
65556;PMS3003;52200;53.490;14.376;2023-06-19T04:12:52;23.50;18.75;11.00
65556;PMS3003;52200;53.490;14.376;2023-06-19T04:15:20;23.80;18.80;12.40
65556;PMS3003;52200;53.490;14.376;2023-06-19T04:17:46;22.50;18.25;11.75
65556;PMS3003;52200;53.490;14.376;2023-06-19T04:20:11;24.50;20.00;13.00
65556;PMS3003;52200;53.490;14.376;2023-06-19T04:22:40;29.50;24.00;16.00
65556;PMS3003;52200;53.490;14.376;2023-06-19T04:25:07;29.80;24.80;14.80
65556;PMS3003;52200;53.490;14.376;2023-06-19T04:27:33;23.80;19.60;14.00
65556;PMS3003;52200;53.490;14.376;2023-06-19T04:29:59;23.60;20.60;15.00
65556;PMS3003;52200;53.490;14.376;2023-06-19T04:32:25;27.40;22.80;16.60
65556;PMS3003;52200;53.490;14.376;2023-06-19T04:34:51;28.50;24.00;16.00
65556;PMS3003;52200;53.490;14.376;2023-06-19T04:37:16;27.00;21.50;15.00
65556;PMS3003;52200;53.490;14.376;2023-06-19T04:39:45;25.20;22.00;14.80
65556;PMS3003;52200;53.490;14.376;2023-06-19T04:42:13;27.75;22.50;14.75
65556;PMS3003;52200;53.490;14.376;2023-06-19T04:44:47;27.20;22.20;14.60
65556;PMS3003;52200;53.490;14.376;2023-06-19T04:47:13;26.00;20.20;14.00
65556;PMS3003;52200;53.490;14.376;2023-06-19T04:49:39;28.00;24.80;17.00
65556;PMS3003;52200;53.490;14.376;2023-06-19T04:52:04;32.25;27.75;18.00
65556;PMS3003;52200;53.490;14.376;2023-06-19T04:54:30;29.50;25.25;15.50
65556;PMS3003;52200;53.490;14.376;2023-06-19T04:56:57;26.80;24.00;15.00
65556;PMS3003;52200;53.490;14.376;2023-06-19T04:59:23;30.00;26.80;18.00
65556;PMS3003;52200;53.490;14.376;2023-06-19T05:01:49;29.20;25.40;16.20
65556;PMS3003;52200;53.490;14.376;2023-06-19T05:04:18;30.80;26.40;17.00
65556;PMS3003;52200;53.490;14.376;2023-06-19T05:06:44;31.25;28.25;19.75
65556;PMS3003;52200;53.490;14.376;2023-06-19T05:09:09;30.50;28.25;18.00
65556;PMS3003;52200;53.490;14.376;2023-06-19T05:11:35;30.20;27.60;18.00
65556;PMS3003;52200;53.490;14.376;2023-06-19T05:14:01;33.00;29.00;18.25
65556;PMS3003;52200;53.490;14.376;2023-06-19T05:16:26;32.50;28.50;18.25
65556;PMS3003;52200;53.490;14.376;2023-06-19T05:18:52;30.75;28.50;18.25
65556;PMS3003;52200;53.490;14.376;2023-06-19T05:21:17;34.50;28.75;18.50
65556;PMS3003;52200;53.490;14.376;2023-06-19T05:23:43;27.75;25.25;16.75
65556;PMS3003;52200;53.490;14.376;2023-06-19T05:26:08;32.00;28.75;17.50
65556;PMS3003;52200;53.490;14.376;2023-06-19T05:28:34;31.50;29.00;19.00
65556;PMS3003;52200;53.490;14.376;2023-06-19T05:30:59;30.25;26.00;17.75
65556;PMS3003;52200;53.490;14.376;2023-06-19T05:33:24;33.25;28.00;18.00
65556;PMS3003;52200;53.490;14.376;2023-06-19T05:35:50;28.25;26.00;17.00
65556;PMS3003;52200;53.490;14.376;2023-06-19T05:38:20;28.00;27.40;16.80
65556;PMS3003;52200;53.490;14.376;2023-06-19T05:40:46;35.40;31.40;19.00
65556;PMS3003;52200;53.490;14.376;2023-06-19T05:43:11;26.25;25.00;16.25
65556;PMS3003;52200;53.490;14.376;2023-06-19T05:45:37;25.00;25.00;16.20
65556;PMS3003;52200;53.490;14.376;2023-06-19T05:48:03;29.25;28.25;17.50
65556;PMS3003;52200;53.490;14.376;2023-06-19T05:50:29;32.75;29.75;18.00
65556;PMS3003;52200;53.490;14.376;2023-06-19T05:52:55;27.40;25.80;15.40
65556;PMS3003;52200;53.490;14.376;2023-06-19T05:55:21;26.75;25.25;16.75
65556;PMS3003;52200;53.490;14.376;2023-06-19T05:57:46;30.00;29.00;17.00
65556;PMS3003;52200;53.490;14.376;2023-06-19T06:00:12;29.00;28.50;18.00
65556;PMS3003;52200;53.490;14.376;2023-06-19T06:02:40;27.00;26.80;17.00
65556;PMS3003;52200;53.490;14.376;2023-06-19T06:05:06;28.00;27.75;17.75
65556;PMS3003;52200;53.490;14.376;2023-06-19T06:07:33;26.60;26.00;17.00
65556;PMS3003;52200;53.490;14.376;2023-06-19T06:09:59;28.00;27.25;17.25
65556;PMS3003;52200;53.490;14.376;2023-06-19T06:12:24;27.50;27.50;18.00
65556;PMS3003;52200;53.490;14.376;2023-06-19T06:14:50;29.75;29.00;18.50
65556;PMS3003;52200;53.490;14.376;2023-06-19T06:17:15;27.00;26.50;17.50
65556;PMS3003;52200;53.490;14.376;2023-06-19T06:19:41;26.25;25.25;17.00
65556;PMS3003;52200;53.490;14.376;2023-06-19T06:22:06;27.50;26.50;17.50
65556;PMS3003;52200;53.490;14.376;2023-06-19T06:24:32;30.75;28.75;17.00
65556;PMS3003;52200;53.490;14.376;2023-06-19T06:26:57;25.00;25.00;17.00
65556;PMS3003;52200;53.490;14.376;2023-06-19T06:29:24;28.40;26.40;17.00
65556;PMS3003;52200;53.490;14.376;2023-06-19T06:31:49;26.75;26.75;17.00
65556;PMS3003;52200;53.490;14.376;2023-06-19T06:34:17;30.00;28.60;17.80
65556;PMS3003;52200;53.490;14.376;2023-06-19T06:36:44;30.00;28.60;18.00
65556;PMS3003;52200;53.490;14.376;2023-06-19T06:39:10;27.75;26.75;16.00
65556;PMS3003;52200;53.490;14.376;2023-06-19T06:41:36;29.20;28.00;17.40
65556;PMS3003;52200;53.490;14.376;2023-06-19T06:44:02;29.40;28.80;18.60
65556;PMS3003;52200;53.490;14.376;2023-06-19T06:46:27;26.50;26.25;15.75
65556;PMS3003;52200;53.490;14.376;2023-06-19T06:48:53;28.00;27.75;16.75
65556;PMS3003;52200;53.490;14.376;2023-06-19T06:51:18;30.75;29.25;18.50
65556;PMS3003;52200;53.490;14.376;2023-06-19T06:53:44;28.25;26.50;16.75
65556;PMS3003;52200;53.490;14.376;2023-06-19T06:56:10;29.80;28.80;18.20
65556;PMS3003;52200;53.490;14.376;2023-06-19T06:58:35;29.75;28.50;17.00
65556;PMS3003;52200;53.490;14.376;2023-06-19T07:01:01;27.25;27.25;17.00
65556;PMS3003;52200;53.490;14.376;2023-06-19T07:03:27;30.20;29.00;18.40
65556;PMS3003;52200;53.490;14.376;2023-06-19T07:05:55;26.80;26.60;16.00
65556;PMS3003;52200;53.490;14.376;2023-06-19T07:08:20;31.00;29.00;17.75
65556;PMS3003;52200;53.490;14.376;2023-06-19T07:10:46;25.00;25.00;17.00
65556;PMS3003;52200;53.490;14.376;2023-06-19T07:13:11;30.50;29.00;17.75
65556;PMS3003;52200;53.490;14.376;2023-06-19T07:15:37;26.75;26.75;16.50
65556;PMS3003;52200;53.490;14.376;2023-06-19T07:18:02;32.25;30.25;18.00
65556;PMS3003;52200;53.490;14.376;2023-06-19T07:20:27;27.75;27.25;16.00
65556;PMS3003;52200;53.490;14.376;2023-06-19T07:22:53;30.75;29.00;19.00
65556;PMS3003;52200;53.490;14.376;2023-06-19T07:25:19;27.60;25.60;16.80
65556;PMS3003;52200;53.490;14.376;2023-06-19T07:27:45;27.75;27.75;17.75
65556;PMS3003;52200;53.490;14.376;2023-06-19T07:30:10;24.75;24.50;17.25
65556;PMS3003;52200;53.490;14.376;2023-06-19T07:32:36;26.40;26.40;16.40
65556;PMS3003;52200;53.490;14.376;2023-06-19T07:35:03;28.40;28.40;18.20
65556;PMS3003;52200;53.490;14.376;2023-06-19T07:37:29;27.00;27.00;17.00
65556;PMS3003;52200;53.490;14.376;2023-06-19T07:39:54;30.25;28.75;17.00
65556;PMS3003;52200;53.490;14.376;2023-06-19T07:42:21;33.20;30.60;19.00
65556;PMS3003;52200;53.490;14.376;2023-06-19T07:44:46;29.50;29.00;16.75
65556;PMS3003;52200;53.490;14.376;2023-06-19T07:47:12;30.50;29.00;17.00
65556;PMS3003;52200;53.490;14.376;2023-06-19T07:49:38;29.20;27.40;16.00
65556;PMS3003;52200;53.490;14.376;2023-06-19T07:52:04;31.75;30.50;17.50
65556;PMS3003;52200;53.490;14.376;2023-06-19T07:54:30;29.00;28.60;16.20
65556;PMS3003;52200;53.490;14.376;2023-06-19T07:56:55;28.75;28.00;17.00
65556;PMS3003;52200;53.490;14.376;2023-06-19T07:59:21;27.25;27.25;17.50
65556;PMS3003;52200;53.490;14.376;2023-06-19T08:01:47;30.00;28.80;17.80
65556;PMS3003;52200;53.490;14.376;2023-06-19T08:04:13;31.75;30.75;18.75
65556;PMS3003;52200;53.490;14.376;2023-06-19T08:06:38;34.25;31.00;19.00
65556;PMS3003;52200;53.490;14.376;2023-06-19T08:09:04;32.00;30.25;18.75
65556;PMS3003;52200;53.490;14.376;2023-06-19T08:11:29;31.75;29.00;19.00
65556;PMS3003;52200;53.490;14.376;2023-06-19T08:13:55;32.00;29.75;19.00
65556;PMS3003;52200;53.490;14.376;2023-06-19T08:16:20;26.25;26.00;16.00
65556;PMS3003;52200;53.490;14.376;2023-06-19T08:18:46;29.25;28.50;16.75
65556;PMS3003;52200;53.490;14.376;2023-06-19T08:21:12;32.40;29.80;18.40
65556;PMS3003;52200;53.490;14.376;2023-06-19T08:23:38;31.60;29.60;19.00
65556;PMS3003;52200;53.490;14.376;2023-06-19T08:26:04;31.60;29.20;19.00
65556;PMS3003;52200;53.490;14.376;2023-06-19T08:28:33;34.00;31.00;19.00
65556;PMS3003;52200;53.490;14.376;2023-06-19T08:30:58;29.80;29.00;17.00
65556;PMS3003;52200;53.490;14.376;2023-06-19T08:33:24;31.00;29.00;19.00
65556;PMS3003;52200;53.490;14.376;2023-06-19T08:35:50;31.00;29.00;18.00
65556;PMS3003;52200;53.490;14.376;2023-06-19T08:38:15;32.50;30.25;18.25
65556;PMS3003;52200;53.490;14.376;2023-06-19T08:40:41;32.00;29.00;18.00
65556;PMS3003;52200;53.490;14.376;2023-06-19T08:43:08;30.40;28.40;17.00
65556;PMS3003;52200;53.490;14.376;2023-06-19T08:45:33;26.75;26.00;17.00
65556;PMS3003;52200;53.490;14.376;2023-06-19T08:47:59;29.75;29.00;18.00
65556;PMS3003;52200;53.490;14.376;2023-06-19T08:50:27;27.20;26.60;16.40
65556;PMS3003;52200;53.490;14.376;2023-06-19T08:52:52;26.00;25.00;16.00
65556;PMS3003;52200;53.490;14.376;2023-06-19T08:55:20;28.40;28.40;17.20
65556;PMS3003;52200;53.490;14.376;2023-06-19T08:57:47;29.00;27.75;17.00
65556;PMS3003;52200;53.490;14.376;2023-06-19T09:00:22;29.60;28.60;17.00
65556;PMS3003;52200;53.490;14.376;2023-06-19T09:02:52;27.60;26.40;16.80
65556;PMS3003;52200;53.490;14.376;2023-06-19T09:05:23;25.80;24.20;15.60
65556;PMS3003;52200;53.490;14.376;2023-06-19T09:07:58;23.25;23.25;15.25
65556;PMS3003;52200;53.490;14.376;2023-06-19T09:10:27;27.60;27.00;15.00
65556;PMS3003;52200;53.490;14.376;2023-06-19T09:13:00;26.50;26.00;16.00
65556;PMS3003;52200;53.490;14.376;2023-06-19T09:15:28;24.60;24.40;15.20
65556;PMS3003;52200;53.490;14.376;2023-06-19T09:20:28;22.80;21.40;14.40
65556;PMS3003;52200;53.490;14.376;2023-06-19T09:22:57;22.40;21.40;15.80
65556;PMS3003;52200;53.490;14.376;2023-06-19T09:25:23;22.00;22.00;14.20
65556;PMS3003;52200;53.490;14.376;2023-06-19T09:27:55;21.00;21.00;14.40
65556;PMS3003;52200;53.490;14.376;2023-06-19T09:30:21;22.20;22.20;14.00
65556;PMS3003;52200;53.490;14.376;2023-06-19T09:32:47;25.00;25.00;16.50
65556;PMS3003;52200;53.490;14.376;2023-06-19T09:35:12;23.80;22.40;14.20
65556;PMS3003;52200;53.490;14.376;2023-06-19T09:37:39;25.00;23.25;14.25
65556;PMS3003;52200;53.490;14.376;2023-06-19T09:40:08;24.80;24.60;15.00
65556;PMS3003;52200;53.490;14.376;2023-06-19T09:42:36;22.80;22.40;13.40
65556;PMS3003;52200;53.490;14.376;2023-06-19T09:45:06;24.80;24.00;14.40
65556;PMS3003;52200;53.490;14.376;2023-06-19T09:47:37;26.00;25.60;15.00
65556;PMS3003;52200;53.490;14.376;2023-06-19T09:50:04;23.00;22.00;14.20
65556;PMS3003;52200;53.490;14.376;2023-06-19T09:52:31;22.80;22.60;15.00
65556;PMS3003;52200;53.490;14.376;2023-06-19T09:54:57;23.20;22.80;13.40
65556;PMS3003;52200;53.490;14.376;2023-06-19T09:57:25;22.20;21.40;14.00
65556;PMS3003;52200;53.490;14.376;2023-06-19T09:59:55;22.20;22.20;14.00
65556;PMS3003;52200;53.490;14.376;2023-06-19T10:02:22;22.80;22.00;12.80
65556;PMS3003;52200;53.490;14.376;2023-06-19T10:04:49;22.60;22.60;15.00
65556;PMS3003;52200;53.490;14.376;2023-06-19T10:07:17;23.00;22.80;13.20
65556;PMS3003;52200;53.490;14.376;2023-06-19T10:10:03;22.80;22.20;14.80
65556;PMS3003;52200;53.490;14.376;2023-06-19T10:12:43;22.60;21.80;14.00
65556;PMS3003;52200;53.490;14.376;2023-06-19T10:15:17;22.00;22.00;13.40
65556;PMS3003;52200;53.490;14.376;2023-06-19T10:20:20;22.80;22.00;14.40
65556;PMS3003;52200;53.490;14.376;2023-06-19T10:22:56;21.40;21.40;13.40
65556;PMS3003;52200;53.490;14.376;2023-06-19T10:25:22;21.40;21.40;14.00
65556;PMS3003;52200;53.490;14.376;2023-06-19T10:27:48;25.20;23.80;14.80
65556;PMS3003;52200;53.490;14.376;2023-06-19T10:30:17;23.40;22.40;15.60
65556;PMS3003;52200;53.490;14.376;2023-06-19T10:32:44;24.40;23.60;14.80
65556;PMS3003;52200;53.490;14.376;2023-06-19T10:35:14;22.80;22.60;14.80
65556;PMS3003;52200;53.490;14.376;2023-06-19T10:37:41;21.60;21.00;14.20
65556;PMS3003;52200;53.490;14.376;2023-06-19T10:40:07;24.20;23.60;15.00
65556;PMS3003;52200;53.490;14.376;2023-06-19T10:42:36;23.80;23.60;15.00
65556;PMS3003;52200;53.490;14.376;2023-06-19T10:45:05;25.00;25.00;15.00
65556;PMS3003;52200;53.490;14.376;2023-06-19T10:47:38;22.20;22.20;15.40
65556;PMS3003;52200;53.490;14.376;2023-06-19T10:50:05;25.00;23.20;14.00
65556;PMS3003;52200;53.490;14.376;2023-06-19T10:52:34;24.80;24.40;14.60
65556;PMS3003;52200;53.490;14.376;2023-06-19T10:55:00;24.00;24.00;14.00
65556;PMS3003;52200;53.490;14.376;2023-06-19T10:57:29;24.25;24.25;16.00
65556;PMS3003;52200;53.490;14.376;2023-06-19T10:59:55;22.00;22.00;14.20
65556;PMS3003;52200;53.490;14.376;2023-06-19T11:02:21;24.00;24.00;14.00
65556;PMS3003;52200;53.490;14.376;2023-06-19T11:04:47;25.60;24.60;15.80
65556;PMS3003;52200;53.490;14.376;2023-06-19T11:07:13;25.75;25.75;17.00
65556;PMS3003;52200;53.490;14.376;2023-06-19T11:09:38;27.00;27.00;15.75
65556;PMS3003;52200;53.490;14.376;2023-06-19T11:12:04;25.00;25.00;15.50
65556;PMS3003;52200;53.490;14.376;2023-06-19T11:14:33;24.00;23.60;15.40
65556;PMS3003;52200;53.490;14.376;2023-06-19T11:17:04;24.80;24.80;14.60
65556;PMS3003;52200;53.490;14.376;2023-06-19T11:19:32;28.40;26.60;16.00
65556;PMS3003;52200;53.490;14.376;2023-06-19T11:21:59;26.60;26.60;15.20
65556;PMS3003;52200;53.490;14.376;2023-06-19T11:24:27;27.20;26.60;17.00
65556;PMS3003;52200;53.490;14.376;2023-06-19T11:26:53;25.50;25.50;15.75
65556;PMS3003;52200;53.490;14.376;2023-06-19T11:32:03;27.60;27.00;17.00
65556;PMS3003;52200;53.490;14.376;2023-06-19T11:34:40;25.40;24.00;15.20
65556;PMS3003;52200;53.490;14.376;2023-06-19T11:37:16;26.00;25.00;15.00
65556;PMS3003;52200;53.490;14.376;2023-06-19T11:39:46;27.20;27.00;16.20
65556;PMS3003;52200;53.490;14.376;2023-06-19T11:42:12;27.20;26.80;16.00
65556;PMS3003;52200;53.490;14.376;2023-06-19T11:47:32;22.40;22.00;15.00
65556;PMS3003;52200;53.490;14.376;2023-06-19T11:49:58;24.60;24.20;15.20
65556;PMS3003;52200;53.490;14.376;2023-06-19T11:52:25;26.60;26.00;16.40
65556;PMS3003;52200;53.490;14.376;2023-06-19T11:54:51;25.00;25.00;15.00
65556;PMS3003;52200;53.490;14.376;2023-06-19T11:57:16;23.50;23.25;16.00
65556;PMS3003;52200;53.490;14.376;2023-06-19T11:59:42;23.00;23.00;14.50
65556;PMS3003;52200;53.490;14.376;2023-06-19T12:02:08;23.25;23.00;16.00
65556;PMS3003;52200;53.490;14.376;2023-06-19T12:04:34;23.20;23.00;15.60
65556;PMS3003;52200;53.490;14.376;2023-06-19T12:07:00;24.40;23.40;15.00
65556;PMS3003;52200;53.490;14.376;2023-06-19T12:09:25;22.40;22.00;14.20
65556;PMS3003;52200;53.490;14.376;2023-06-19T12:11:51;25.00;24.00;15.00
65556;PMS3003;52200;53.490;14.376;2023-06-19T12:14:17;26.00;26.00;15.50
65556;PMS3003;52200;53.490;14.376;2023-06-19T12:16:45;27.80;27.20;17.20
65556;PMS3003;52200;53.490;14.376;2023-06-19T12:19:11;28.00;27.00;15.80
65556;PMS3003;52200;53.490;14.376;2023-06-19T12:21:36;24.25;24.00;15.75
65556;PMS3003;52200;53.490;14.376;2023-06-19T12:24:02;23.80;23.00;15.00
65556;PMS3003;52200;53.490;14.376;2023-06-19T12:26:28;24.80;24.80;15.80
65556;PMS3003;52200;53.490;14.376;2023-06-19T12:28:54;23.75;23.75;15.00
65556;PMS3003;52200;53.490;14.376;2023-06-19T12:31:19;24.00;23.50;15.75
65556;PMS3003;52200;53.490;14.376;2023-06-19T12:33:45;25.25;25.00;15.25
65556;PMS3003;52200;53.490;14.376;2023-06-19T12:36:13;22.40;22.40;15.00
65556;PMS3003;52200;53.490;14.376;2023-06-19T12:38:41;22.00;22.00;15.20
65556;PMS3003;52200;53.490;14.376;2023-06-19T12:41:07;25.50;25.50;16.50
65556;PMS3003;52200;53.490;14.376;2023-06-19T12:43:32;24.75;24.75;16.25
65556;PMS3003;52200;53.490;14.376;2023-06-19T12:45:58;28.50;28.50;18.00
65556;PMS3003;52200;53.490;14.376;2023-06-19T12:48:24;27.60;27.00;16.00
65556;PMS3003;52200;53.490;14.376;2023-06-19T12:50:50;25.40;25.00;15.20
65556;PMS3003;52200;53.490;14.376;2023-06-19T12:53:16;21.75;21.25;15.00
65556;PMS3003;52200;53.490;14.376;2023-06-19T12:55:42;20.80;20.80;14.00
65556;PMS3003;52200;53.490;14.376;2023-06-19T12:58:08;23.50;23.25;14.25
65556;PMS3003;52200;53.490;14.376;2023-06-19T13:00:34;26.80;26.80;15.00
65556;PMS3003;52200;53.490;14.376;2023-06-19T13:02:59;23.00;23.00;15.00
65556;PMS3003;52200;53.490;14.376;2023-06-19T13:05:25;24.25;24.25;14.50
65556;PMS3003;52200;53.490;14.376;2023-06-19T13:07:51;25.75;24.75;15.00
65556;PMS3003;52200;53.490;14.376;2023-06-19T13:10:16;23.50;23.00;15.00
65556;PMS3003;52200;53.490;14.376;2023-06-19T13:12:42;22.75;22.75;14.75
65556;PMS3003;52200;53.490;14.376;2023-06-19T13:15:07;21.00;20.50;13.00
65556;PMS3003;52200;53.490;14.376;2023-06-19T13:17:33;21.00;21.00;14.80
65556;PMS3003;52200;53.490;14.376;2023-06-19T13:19:59;23.00;23.00;14.50
65556;PMS3003;52200;53.490;14.376;2023-06-19T13:22:24;21.00;21.00;14.25
65556;PMS3003;52200;53.490;14.376;2023-06-19T13:24:50;22.00;21.75;15.75
65556;PMS3003;52200;53.490;14.376;2023-06-19T13:27:16;21.00;20.60;13.60
65556;PMS3003;52200;53.490;14.376;2023-06-19T13:29:42;23.75;23.50;14.00
65556;PMS3003;52200;53.490;14.376;2023-06-19T13:32:07;22.75;21.75;13.25
65556;PMS3003;52200;53.490;14.376;2023-06-19T13:34:33;20.75;20.00;13.75
65556;PMS3003;52200;53.490;14.376;2023-06-19T13:36:58;22.00;22.00;13.50
65556;PMS3003;52200;53.490;14.376;2023-06-19T13:39:24;21.50;21.00;14.75
65556;PMS3003;52200;53.490;14.376;2023-06-19T13:41:49;29.25;28.25;17.00
65556;PMS3003;52200;53.490;14.376;2023-06-19T13:44:15;27.60;26.60;16.00
65556;PMS3003;52200;53.490;14.376;2023-06-19T13:46:40;36.00;32.00;21.75